createdAt,value
2023-04-15T00:02:18.562Z,4.40
2023-04-15T00:04:47.983Z,4.63
2023-04-15T00:07:16.332Z,3.90
2023-04-15T00:09:44.684Z,3.88
2023-04-15T00:12:12.688Z,3.85
2023-04-15T00:14:40.516Z,4.30
2023-04-15T00:17:08.481Z,4.25
2023-04-15T00:19:36.826Z,4.78
2023-04-15T00:22:06.415Z,4.95
2023-04-15T00:24:34.185Z,4.53
2023-04-15T00:27:02.184Z,4.03
2023-04-15T00:29:30.706Z,3.53
2023-04-15T00:31:58.640Z,4.20
2023-04-15T00:34:26.517Z,3.88
2023-04-15T00:36:54.603Z,4.55
2023-04-15T00:39:23.653Z,4.18
2023-04-15T00:41:51.607Z,4.03
2023-04-15T00:44:20.053Z,3.83
2023-04-15T00:46:48.876Z,4.28
2023-04-15T00:49:17.770Z,4.65
2023-04-15T00:51:45.769Z,4.43
2023-04-15T00:54:13.511Z,4.35
2023-04-15T00:56:42.929Z,4.22
2023-04-15T00:59:11.154Z,4.72
2023-04-15T01:01:39.052Z,4.47
2023-04-15T01:04:06.984Z,4.15
2023-04-15T01:06:35.065Z,3.95
2023-04-15T01:09:03.398Z,3.88
2023-04-15T01:11:33.511Z,3.88
2023-04-15T01:14:02.755Z,3.92
2023-04-15T01:16:30.795Z,4.05
2023-04-15T01:18:58.937Z,3.78
2023-04-15T01:21:26.971Z,4.50
2023-04-15T01:23:56.885Z,4.15
2023-04-15T01:26:26.192Z,4.80
2023-04-15T01:28:53.944Z,4.28
2023-04-15T01:31:22.286Z,4.60
2023-04-15T01:33:50.105Z,5.32
2023-04-15T01:36:17.864Z,4.80
2023-04-15T01:38:45.981Z,4.25
2023-04-15T01:41:14.394Z,4.40
2023-04-15T01:43:43.521Z,5.43
2023-04-15T01:46:11.832Z,4.13
2023-04-15T01:48:39.576Z,4.32
2023-04-15T01:51:08.135Z,4.65
2023-04-15T01:53:35.946Z,4.78
2023-04-15T01:56:03.717Z,4.30
2023-04-15T01:58:31.839Z,4.82
2023-04-15T02:01:01.860Z,3.97
2023-04-15T02:03:30.083Z,4.65
2023-04-15T02:05:57.899Z,5.25
2023-04-15T02:08:25.703Z,4.22
2023-04-15T02:10:53.772Z,4.75
2023-04-15T02:13:22.052Z,4.75
2023-04-15T02:15:52.294Z,4.75
2023-04-15T02:18:21.691Z,4.28
2023-04-15T02:20:49.881Z,5.28
2023-04-15T02:23:17.662Z,4.78
2023-04-15T02:25:53.792Z,4.40
2023-04-15T02:28:22.281Z,4.85
2023-04-15T02:30:50.950Z,4.57
2023-04-15T02:33:18.729Z,4.22
2023-04-15T02:35:47.823Z,5.25
2023-04-15T02:38:17.435Z,4.30
2023-04-15T02:40:45.262Z,4.82
2023-04-15T02:43:13.011Z,5.55
2023-04-15T02:45:41.520Z,4.43
2023-04-15T02:48:09.500Z,4.72
2023-04-15T02:50:38.843Z,5.30
2023-04-15T02:53:08.233Z,5.95
2023-04-15T02:55:35.953Z,5.18
2023-04-15T02:58:04.472Z,5.35
2023-04-15T03:00:32.262Z,5.13
2023-04-15T03:03:00.904Z,5.15
2023-04-15T03:05:28.801Z,5.53
2023-04-15T03:07:56.777Z,5.82
2023-04-15T03:10:26.092Z,5.43
2023-04-15T03:12:54.218Z,4.78
2023-04-15T03:15:22.350Z,5.00
2023-04-15T03:17:50.671Z,5.43
2023-04-15T03:20:18.568Z,5.35
2023-04-15T03:22:46.679Z,4.88
2023-04-15T03:25:14.595Z,5.07
2023-04-15T03:27:44.035Z,5.03
2023-04-15T03:30:12.421Z,5.13
2023-04-15T03:32:40.268Z,6.20
2023-04-15T03:35:08.324Z,5.78
2023-04-15T03:37:36.081Z,5.38
2023-04-15T03:40:04.069Z,5.22
2023-04-15T03:42:31.888Z,5.45
2023-04-15T03:45:00.966Z,4.45
2023-04-15T03:47:31.273Z,4.65
2023-04-15T03:50:01.870Z,5.28
2023-04-15T03:52:29.621Z,4.97
2023-04-15T03:54:57.924Z,4.97
2023-04-15T03:57:25.749Z,4.72
2023-04-15T03:59:53.485Z,4.47
2023-04-15T04:02:23.215Z,5.03
2023-04-15T04:04:51.213Z,4.88
2023-04-15T04:07:19.315Z,3.60
2023-04-15T04:09:47.405Z,4.78
2023-04-15T04:12:15.832Z,5.35
2023-04-15T04:14:43.624Z,5.55
2023-04-15T04:17:11.708Z,5.50
2023-04-15T04:19:40.989Z,5.22
2023-04-15T04:22:08.890Z,5.15
2023-04-15T04:24:39.280Z,5.22
2023-04-15T04:27:06.996Z,4.72
2023-04-15T04:29:34.744Z,5.38
2023-04-15T04:32:02.902Z,5.60
2023-04-15T04:34:31.156Z,5.65
2023-04-15T04:37:00.282Z,5.88
2023-04-15T04:39:28.015Z,5.57
2023-04-15T04:41:56.021Z,6.28
2023-04-15T04:44:24.092Z,5.60
2023-04-15T04:46:51.881Z,6.38
2023-04-15T04:49:19.935Z,6.20
2023-04-15T04:51:48.906Z,5.38
2023-04-15T04:54:18.075Z,5.47
2023-04-15T04:56:45.840Z,5.68
2023-04-15T04:59:14.047Z,5.35
2023-04-15T05:01:42.013Z,4.57
2023-04-15T05:04:10.009Z,4.85
2023-04-15T05:06:37.888Z,5.13
2023-04-15T05:09:05.654Z,5.05
2023-04-15T05:11:35.047Z,5.53
2023-04-15T05:14:02.808Z,5.43
2023-04-15T05:16:30.610Z,6.32
2023-04-15T05:19:00.686Z,6.88
2023-04-15T05:21:28.750Z,7.15
2023-04-15T05:23:57.690Z,7.18
2023-04-15T05:26:25.526Z,7.15
2023-04-15T05:28:55.099Z,8.10
2023-04-15T05:31:23.275Z,8.40
2023-04-15T05:33:51.273Z,8.40
2023-04-15T05:36:19.036Z,8.35
2023-04-15T05:38:46.823Z,8.02
2023-04-15T05:41:16.588Z,8.00
2023-04-15T05:43:46.695Z,7.75
2023-04-15T05:46:15.905Z,8.13
2023-04-15T05:48:43.981Z,7.97
2023-04-15T05:51:11.893Z,7.72
2023-04-15T05:53:41.201Z,8.27
2023-04-15T05:56:09.288Z,7.60
2023-04-15T05:58:37.029Z,7.93
2023-04-15T06:01:05.088Z,7.65
2023-04-15T06:03:34.475Z,8.25
2023-04-15T06:06:02.799Z,7.63
2023-04-15T06:08:30.558Z,9.05
2023-04-15T06:10:59.531Z,8.27
2023-04-15T06:13:27.625Z,7.78
2023-04-15T06:15:55.628Z,7.07
2023-04-15T06:18:23.422Z,7.70
2023-04-15T06:20:52.959Z,7.65
2023-04-15T06:23:20.944Z,7.32
2023-04-15T06:25:48.694Z,8.20
2023-04-15T06:28:16.735Z,9.05
2023-04-15T06:30:44.528Z,9.05
2023-04-15T06:33:12.729Z,9.32
2023-04-15T06:35:40.589Z,8.20
2023-04-15T06:38:10.155Z,8.73
2023-04-15T06:40:37.913Z,8.32
2023-04-15T06:43:05.868Z,8.25
2023-04-15T06:45:33.995Z,7.75
2023-04-15T06:48:01.877Z,7.65
2023-04-15T06:50:29.788Z,8.15
2023-04-15T06:52:57.934Z,6.32
2023-04-15T06:55:27.650Z,7.43
2023-04-15T06:57:55.423Z,7.28
2023-04-15T07:00:23.562Z,7.97
2023-04-15T07:02:51.982Z,7.15
2023-04-15T07:05:20.190Z,6.82
2023-04-15T07:07:48.087Z,7.55
2023-04-15T07:10:15.922Z,7.88
2023-04-15T07:12:45.112Z,6.55
2023-04-15T07:15:13.185Z,7.18
2023-04-15T07:17:41.776Z,6.30
2023-04-15T07:20:09.957Z,5.28
2023-04-15T07:22:38.088Z,5.50
2023-04-15T07:25:06.555Z,4.47
2023-04-15T07:27:34.321Z,3.90
2023-04-15T07:30:03.414Z,4.05
2023-04-15T07:32:31.397Z,3.17
2023-04-15T07:34:59.246Z,3.67
2023-04-15T07:37:28.361Z,4.60
2023-04-15T07:39:56.447Z,3.60
2023-04-15T07:42:24.281Z,3.13
2023-04-15T07:44:52.974Z,2.40
2023-04-15T07:47:22.134Z,2.40
2023-04-15T07:49:51.734Z,2.15
2023-04-15T07:52:19.832Z,2.25
2023-04-15T07:54:47.607Z,1.90
2023-04-15T07:57:15.388Z,2.47
2023-04-15T07:59:43.150Z,2.28
2023-04-15T08:02:11.993Z,2.22
2023-04-15T08:04:41.366Z,1.95
2023-04-15T08:07:09.259Z,2.60
2023-04-15T08:09:37.049Z,2.60
2023-04-15T08:12:05.024Z,2.33
2023-04-15T08:14:32.773Z,2.80
2023-04-15T08:17:00.540Z,2.78
2023-04-15T08:19:28.336Z,2.47
2023-04-15T08:21:57.689Z,2.75
2023-04-15T08:24:26.460Z,2.00
2023-04-15T08:26:54.548Z,2.17
2023-04-15T08:29:22.629Z,4.07
2023-04-15T08:31:50.503Z,3.30
2023-04-15T08:34:19.157Z,3.10
2023-04-15T08:36:47.156Z,3.42
2023-04-15T08:39:16.609Z,2.92
2023-04-15T08:41:48.008Z,2.55
2023-04-15T08:44:16.257Z,3.33
2023-04-15T08:46:44.710Z,3.42
2023-04-15T08:49:13.606Z,3.38
2023-04-15T08:51:41.629Z,2.63
2023-04-15T08:54:09.675Z,2.55
2023-04-15T08:56:39.718Z,2.65
2023-04-15T08:59:08.098Z,2.03
2023-04-15T09:01:36.734Z,2.33
2023-04-15T09:04:06.930Z,2.33
2023-04-15T09:06:34.990Z,2.22
2023-04-15T09:09:03.181Z,1.73
2023-04-15T09:11:31.822Z,2.63
2023-04-15T09:14:00.981Z,2.15
2023-04-15T09:16:29.248Z,2.55
2023-04-15T09:18:57.110Z,2.80
2023-04-15T09:21:25.620Z,2.38
2023-04-15T09:23:57.567Z,2.88
2023-04-15T09:26:35.060Z,2.58
2023-04-15T09:29:09.190Z,2.50
2023-04-15T09:31:38.044Z,2.67
2023-04-15T09:34:06.190Z,2.85
2023-04-15T09:36:40.234Z,3.50
2023-04-15T09:39:08.251Z,3.75
2023-04-15T09:41:36.716Z,4.00
2023-04-15T09:44:05.162Z,4.13
2023-04-15T09:46:44.184Z,4.25
2023-04-15T09:49:12.396Z,4.30
2023-04-15T09:51:41.289Z,4.47
2023-04-15T09:54:09.940Z,4.90
2023-04-15T09:56:38.565Z,5.60
2023-04-15T09:59:07.169Z,5.35
2023-04-15T10:01:35.204Z,5.35
2023-04-15T10:04:05.639Z,5.70
2023-04-15T10:06:34.773Z,5.35
2023-04-15T10:09:02.937Z,5.63
2023-04-15T10:11:31.804Z,5.65
2023-04-15T10:14:00.403Z,6.05
2023-04-15T10:16:29.869Z,5.47
2023-04-15T10:18:58.406Z,6.50
2023-04-15T10:21:29.185Z,5.90
2023-04-15T10:23:57.229Z,6.32
2023-04-15T10:26:25.900Z,7.47
2023-04-15T10:28:54.204Z,6.80
2023-04-15T10:31:22.605Z,7.20
2023-04-15T10:33:50.580Z,7.00
2023-04-15T10:36:20.067Z,7.70
2023-04-15T10:38:49.288Z,7.00
2023-04-15T10:41:20.474Z,6.60
2023-04-15T10:43:50.546Z,6.78
2023-04-15T10:46:19.987Z,7.75
2023-04-15T10:48:48.480Z,7.78
2023-04-15T10:51:16.298Z,8.13
2023-04-15T10:53:44.152Z,10.10
2023-04-15T10:56:13.588Z,8.45
2023-04-15T10:58:44.496Z,8.80
2023-04-15T11:01:12.506Z,8.73
2023-04-15T11:03:41.044Z,8.70
2023-04-15T11:06:09.443Z,9.57
2023-04-15T11:08:56.532Z,9.98
2023-04-15T11:11:46.455Z,9.30
2023-04-15T11:14:16.531Z,9.50
2023-04-15T11:16:45.579Z,9.52
2023-04-15T11:19:13.808Z,9.73
2023-04-15T11:21:42.155Z,8.70
2023-04-15T11:24:10.146Z,9.98
2023-04-15T11:26:40.106Z,9.40
2023-04-15T11:29:08.202Z,8.68
2023-04-15T11:31:36.098Z,10.15
2023-04-15T11:34:04.360Z,9.38
2023-04-15T11:36:33.338Z,9.93
2023-04-15T11:39:01.152Z,9.30
2023-04-15T11:41:29.241Z,10.93
2023-04-15T11:43:58.356Z,11.48
2023-04-15T11:46:30.503Z,10.75
2023-04-15T11:48:58.308Z,10.23
2023-04-15T11:51:26.293Z,10.40
2023-04-15T11:53:54.874Z,12.18
2023-04-15T11:56:23.745Z,11.25
2023-04-15T11:58:53.628Z,11.27
2023-04-15T12:01:31.648Z,11.38
2023-04-15T12:04:01.953Z,11.50
2023-04-15T12:06:35.023Z,11.25
2023-04-15T12:09:05.400Z,10.75
2023-04-15T12:11:34.894Z,11.85
2023-04-15T12:14:07.125Z,11.50
2023-04-15T12:16:48.183Z,11.45
2023-04-15T12:19:18.212Z,11.80
2023-04-15T12:21:47.888Z,11.32
2023-04-15T12:24:15.869Z,11.27
2023-04-15T12:26:47.232Z,10.70
2023-04-15T12:29:16.514Z,11.52
2023-04-15T12:31:52.968Z,10.48
2023-04-15T12:34:27.717Z,11.85
2023-04-15T12:36:57.327Z,10.23
2023-04-15T12:39:25.632Z,9.85
2023-04-15T12:41:53.448Z,11.85
2023-04-15T12:44:21.877Z,11.35
2023-04-15T12:46:49.838Z,10.85
2023-04-15T12:49:21.162Z,10.30
2023-04-15T12:51:49.790Z,11.07
2023-04-15T12:54:17.880Z,12.50
2023-04-15T12:56:46.120Z,11.55
2023-04-15T12:59:14.024Z,29.30
2023-04-15T13:01:42.080Z,14.40
2023-04-15T13:04:10.004Z,15.30
2023-04-15T13:06:39.382Z,14.70
2023-04-15T13:09:07.352Z,9.63
2023-04-15T13:11:35.790Z,8.85
2023-04-15T13:14:04.275Z,8.65
2023-04-15T13:16:32.612Z,7.38
2023-04-15T13:19:00.608Z,9.00
2023-04-15T13:21:28.602Z,9.88
2023-04-15T13:23:57.789Z,8.57
2023-04-15T13:26:25.790Z,7.38
2023-04-15T13:28:53.582Z,8.05
2023-04-15T13:31:21.671Z,8.85
2023-04-15T13:33:49.511Z,8.88
2023-04-15T13:36:17.830Z,10.23
2023-04-15T13:38:45.726Z,10.38
2023-04-15T13:41:14.877Z,11.00
2023-04-15T13:43:42.874Z,9.38
2023-04-15T13:46:11.440Z,8.57
2023-04-15T13:48:39.320Z,10.50
2023-04-15T13:51:07.206Z,11.75
2023-04-15T13:53:38.735Z,11.20
2023-04-15T13:56:07.654Z,8.88
2023-04-15T13:58:36.926Z,9.40
2023-04-15T14:01:06.005Z,8.52
2023-04-15T14:03:34.539Z,9.13
2023-04-15T14:06:02.818Z,9.55
2023-04-15T14:08:31.052Z,8.93
2023-04-15T14:10:58.862Z,8.70
2023-04-15T14:13:26.852Z,8.35
2023-04-15T14:15:56.111Z,8.27
2023-04-15T14:18:23.925Z,6.32
2023-04-15T14:20:52.026Z,6.65
2023-04-15T14:23:20.249Z,5.85
2023-04-15T14:25:48.549Z,4.93
2023-04-15T14:28:17.031Z,4.90
2023-04-15T14:30:44.853Z,4.30
2023-04-15T14:33:14.088Z,4.30
2023-04-15T14:35:41.926Z,4.93
2023-04-15T14:38:11.502Z,4.53
2023-04-15T14:40:40.008Z,4.28
2023-04-15T14:43:07.789Z,4.15
2023-04-15T14:45:36.398Z,3.78
2023-04-15T14:48:06.448Z,3.80
2023-04-15T14:50:36.212Z,3.38
2023-04-15T14:53:04.223Z,3.83
2023-04-15T14:55:32.296Z,3.58
2023-04-15T14:58:02.276Z,3.05
2023-04-15T15:00:30.082Z,3.80
2023-04-15T15:02:58.557Z,3.15
2023-04-15T15:05:26.637Z,3.45
2023-04-15T15:07:55.791Z,3.40
2023-04-15T15:10:47.225Z,3.63
2023-04-15T15:13:11.856Z,4.22
2023-04-15T15:15:40.348Z,4.78
2023-04-15T15:18:08.587Z,4.28
2023-04-15T15:20:36.472Z,4.28
2023-04-15T15:23:06.006Z,3.88
2023-04-15T15:25:33.834Z,3.90
2023-04-15T15:28:01.976Z,4.80
2023-04-15T15:30:30.603Z,5.03
2023-04-15T15:32:58.791Z,5.15
2023-04-15T15:35:26.910Z,4.40
2023-04-15T15:37:56.373Z,5.50
2023-04-15T15:40:25.613Z,5.38
2023-04-15T15:42:53.460Z,5.22
2023-04-15T15:45:21.284Z,5.30
2023-04-15T15:47:49.202Z,5.13
2023-04-15T15:50:17.151Z,5.28
2023-04-15T15:52:45.354Z,4.88
2023-04-15T15:55:13.175Z,3.70
2023-04-15T15:57:42.331Z,4.28
2023-04-15T16:00:12.669Z,3.85
2023-04-15T16:05:11.978Z,4.15
2023-04-15T16:07:39.850Z,3.78
2023-04-15T16:10:08.704Z,3.05
2023-04-15T16:12:36.782Z,3.22
2023-04-15T16:15:06.549Z,3.80
2023-04-15T16:17:34.676Z,3.50
2023-04-15T16:20:05.544Z,3.10
2023-04-15T16:22:33.671Z,3.47
2023-04-15T16:25:02.229Z,3.80
2023-04-15T16:27:30.409Z,3.88
2023-04-15T16:29:58.269Z,3.20
2023-04-15T16:32:27.657Z,4.15
2023-04-15T16:34:55.504Z,4.15
2023-04-15T16:37:23.551Z,4.53
2023-04-15T16:39:51.758Z,5.13
2023-04-15T16:42:19.808Z,6.35
2023-04-15T16:44:47.869Z,5.15
2023-04-15T16:47:16.002Z,5.35
2023-04-15T16:49:45.312Z,5.15
2023-04-15T16:52:13.061Z,5.63
2023-04-15T16:54:41.824Z,5.22
2023-04-15T16:57:09.984Z,4.25
2023-04-15T16:59:38.826Z,6.03
2023-04-15T17:02:06.647Z,7.38
2023-04-15T17:04:35.006Z,7.25
2023-04-15T17:07:04.825Z,7.88
2023-04-15T17:09:32.605Z,7.70
2023-04-15T17:12:01.052Z,8.23
2023-04-15T17:14:29.054Z,7.68
2023-04-15T17:16:59.517Z,8.15
2023-04-15T17:19:27.553Z,9.13
2023-04-15T17:21:55.352Z,9.45
2023-04-15T17:24:24.474Z,8.23
2023-04-15T17:26:52.350Z,7.95
2023-04-15T17:29:20.117Z,7.45
2023-04-15T17:31:47.889Z,8.00
2023-04-15T17:34:16.179Z,7.82
2023-04-15T17:36:44.069Z,8.57
2023-04-15T17:39:11.960Z,9.18
2023-04-15T17:41:41.521Z,8.43
2023-04-15T17:44:09.354Z,9.63
2023-04-15T17:46:37.204Z,9.25
2023-04-15T17:49:06.018Z,8.65
2023-04-15T17:51:34.176Z,8.93
2023-04-15T17:54:01.979Z,9.27
2023-04-15T17:56:29.811Z,9.07
2023-04-15T17:59:00.465Z,9.88
2023-04-15T18:01:28.480Z,9.23
2023-04-15T18:03:56.579Z,9.68
2023-04-15T18:06:24.935Z,9.60
2023-04-15T18:08:52.898Z,10.65
2023-04-15T18:11:20.714Z,9.15
2023-04-15T18:13:48.429Z,10.20
2023-04-15T18:16:17.626Z,9.70
2023-04-15T18:18:46.655Z,10.30
2023-04-15T18:21:14.491Z,10.15
2023-04-15T18:23:42.281Z,10.45
2023-04-15T18:26:10.366Z,11.02
2023-04-15T18:28:40.030Z,10.10
2023-04-15T18:31:08.064Z,11.23
2023-04-15T18:33:37.534Z,11.43
2023-04-15T18:36:05.433Z,9.95
2023-04-15T18:38:33.192Z,11.35
2023-04-15T18:41:01.404Z,11.18
2023-04-15T18:43:29.218Z,11.85
2023-04-15T18:45:57.017Z,11.93
2023-04-15T18:48:26.368Z,12.35
2023-04-15T18:50:58.300Z,11.75
2023-04-15T18:53:27.370Z,11.57
2023-04-15T18:55:56.286Z,12.20
2023-04-15T18:58:24.118Z,13.65
2023-04-15T19:00:51.887Z,13.07
2023-04-15T19:03:19.915Z,13.25
2023-04-15T19:05:47.759Z,13.18
2023-04-15T19:08:16.871Z,12.88
2023-04-15T19:10:44.664Z,12.57
2023-04-15T19:13:12.461Z,12.80
2023-04-15T19:15:40.275Z,13.25
2023-04-15T19:18:10.630Z,14.00
2023-04-15T19:20:40.002Z,14.23
2023-04-15T19:23:08.260Z,13.48
2023-04-15T19:25:37.589Z,13.95
2023-04-15T19:28:05.575Z,13.90
2023-04-15T19:30:33.890Z,14.30
2023-04-15T19:33:01.790Z,13.32
2023-04-15T19:35:29.589Z,13.35
2023-04-15T19:37:59.518Z,13.77
2023-04-15T19:40:27.282Z,13.38
2023-04-15T19:42:56.417Z,13.05
2023-04-15T19:45:24.153Z,14.25
2023-04-15T19:47:52.724Z,13.52
2023-04-15T19:50:24.589Z,13.02
2023-04-15T19:52:52.418Z,12.90
2023-04-15T19:55:20.433Z,12.25
2023-04-15T19:57:48.459Z,11.90
2023-04-15T20:00:17.583Z,11.77
2023-04-15T20:02:45.566Z,12.05
2023-04-15T20:05:13.915Z,12.32
2023-04-15T20:07:42.757Z,12.50
2023-04-15T20:10:13.220Z,13.00
2023-04-15T20:12:51.355Z,11.68
2023-04-15T20:15:23.824Z,11.43
2023-04-15T20:17:51.977Z,10.63
2023-04-15T20:20:20.030Z,11.48
2023-04-15T20:22:48.048Z,11.30
2023-04-15T20:25:15.933Z,11.15
2023-04-15T20:27:43.719Z,10.65
2023-04-15T20:30:11.994Z,11.68
2023-04-15T20:32:41.393Z,9.48
2023-04-15T20:35:09.368Z,10.93
2023-04-15T20:37:38.447Z,10.43
2023-04-15T20:40:06.718Z,10.30
2023-04-15T20:42:35.290Z,10.85
2023-04-15T20:45:03.223Z,10.82
2023-04-15T20:47:31.540Z,9.75
2023-04-15T20:50:00.831Z,10.02
2023-04-15T20:52:28.642Z,9.70
2023-04-15T20:54:56.823Z,9.85
2023-04-15T20:57:25.898Z,8.80
2023-04-15T20:59:53.664Z,9.10
2023-04-15T21:02:21.857Z,8.80
2023-04-15T21:04:49.826Z,9.00
2023-04-15T21:07:18.909Z,8.93
2023-04-15T21:09:47.504Z,9.55
2023-04-15T21:12:15.588Z,8.73
2023-04-15T21:14:43.355Z,9.55
2023-04-15T21:17:11.599Z,8.13
2023-04-15T21:19:40.322Z,8.50
2023-04-15T21:22:08.297Z,8.32
2023-04-15T21:24:37.403Z,7.97
2023-04-15T21:27:05.199Z,8.98
2023-04-15T21:29:33.022Z,9.80
2023-04-15T21:32:00.968Z,8.40
2023-04-15T21:34:29.140Z,8.30
2023-04-15T21:36:56.859Z,8.90
2023-04-15T21:39:24.864Z,9.40
2023-04-15T21:41:54.058Z,9.77
2023-04-15T21:44:22.077Z,9.15
2023-04-15T21:46:50.084Z,10.05
2023-04-15T21:49:17.954Z,9.70
2023-04-15T21:51:46.390Z,9.27
2023-04-15T21:54:14.234Z,8.95
2023-04-15T21:56:42.465Z,8.30
2023-04-15T21:59:11.549Z,8.63
2023-04-15T22:01:39.332Z,8.60
2023-04-15T22:04:07.651Z,8.07
2023-04-15T22:06:35.535Z,9.00
2023-04-15T22:09:03.617Z,6.97
2023-04-15T22:11:32.302Z,8.05
2023-04-15T22:14:00.788Z,7.82
2023-04-15T22:16:30.132Z,7.50
2023-04-15T22:18:57.952Z,7.70
2023-04-15T22:21:26.558Z,7.32
2023-04-15T22:24:38.835Z,7.03
2023-04-15T22:26:42.290Z,6.80
2023-04-15T22:29:10.636Z,6.63
2023-04-15T22:31:40.079Z,6.18
2023-04-15T22:34:08.519Z,6.88
2023-04-15T22:36:36.660Z,7.25
2023-04-15T22:39:04.902Z,5.78
2023-04-15T22:41:33.160Z,5.93
2023-04-15T22:44:01.214Z,6.85
2023-04-15T22:46:28.998Z,6.60
2023-04-15T22:48:58.158Z,6.57
2023-04-15T22:51:28.081Z,6.07
2023-04-15T22:53:56.179Z,6.47
2023-04-15T22:56:24.142Z,6.68
2023-04-15T22:58:51.907Z,6.50
2023-04-15T23:01:20.809Z,5.70
2023-04-15T23:03:56.142Z,6.65
2023-04-15T23:06:27.063Z,6.75
2023-04-15T23:08:55.052Z,6.57
2023-04-15T23:11:22.872Z,6.32
2023-04-15T23:13:51.022Z,6.32
2023-04-15T23:16:19.050Z,7.18
2023-04-15T23:18:46.814Z,6.38
2023-04-15T23:21:14.582Z,6.53
2023-04-15T23:23:43.754Z,5.65
2023-04-15T23:26:11.866Z,6.43
2023-04-15T23:28:39.873Z,6.03
2023-04-15T23:31:07.777Z,5.88
2023-04-15T23:33:35.789Z,5.95
2023-04-15T23:36:03.981Z,5.75
2023-04-15T23:38:31.734Z,5.40
2023-04-15T23:41:01.579Z,4.88
2023-04-15T23:43:29.355Z,5.03
2023-04-15T23:45:57.310Z,4.82
2023-04-15T23:48:25.295Z,4.43
2023-04-15T23:50:53.324Z,4.70
2023-04-15T23:53:21.083Z,4.47
2023-04-15T23:55:49.264Z,4.47
2023-04-15T23:58:18.361Z,4.50
